createdAt,value
2022-08-11T00:04:37.334Z,14.77
2022-08-11T00:09:41.909Z,14.72
2022-08-11T00:14:49.309Z,14.64
2022-08-11T00:20:14.592Z,14.58
2022-08-11T00:25:22.555Z,14.53
2022-08-11T00:30:26.175Z,14.46
2022-08-11T00:35:54.532Z,14.41
2022-08-11T00:41:09.351Z,14.33
2022-08-11T00:46:15.632Z,14.25
2022-08-11T00:52:04.202Z,14.22
2022-08-11T00:57:59.432Z,14.20
2022-08-11T01:03:18.615Z,14.16
2022-08-11T01:08:40.870Z,14.11
2022-08-11T01:13:56.366Z,14.09
2022-08-11T01:19:17.600Z,14.07
2022-08-11T01:24:59.206Z,13.98
2022-08-11T01:30:11.424Z,13.92
2022-08-11T01:35:56.719Z,13.86
2022-08-11T01:41:56.659Z,13.79
2022-08-11T01:47:35.091Z,13.75
2022-08-11T01:53:09.432Z,13.67
2022-08-11T01:58:44.194Z,13.63
2022-08-11T02:04:15.342Z,13.57
2022-08-11T02:09:26.333Z,13.49
2022-08-11T02:14:32.519Z,13.38
2022-08-11T02:20:22.722Z,13.27
2022-08-11T02:25:41.370Z,13.21
2022-08-11T02:32:25.046Z,13.16
2022-08-11T02:37:00.616Z,13.16
2022-08-11T02:42:35.826Z,13.14
2022-08-11T02:48:16.973Z,13.10
2022-08-11T02:53:37.999Z,13.10
2022-08-11T02:59:22.884Z,13.07
2022-08-11T03:04:38.482Z,13.01
2022-08-11T03:09:55.823Z,12.94
2022-08-11T03:15:38.678Z,12.92
2022-08-11T03:21:18.119Z,12.97
2022-08-11T03:26:55.281Z,12.98
2022-08-11T03:32:04.881Z,13.07
2022-08-11T03:37:16.005Z,13.14
2022-08-11T03:42:48.775Z,13.18
2022-08-11T03:48:17.789Z,13.22
2022-08-11T03:53:39.942Z,13.31
2022-08-11T03:59:38.344Z,13.46
2022-08-11T04:05:27.326Z,13.65
2022-08-11T04:10:55.212Z,13.84
2022-08-11T04:16:42.452Z,14.01
2022-08-11T04:22:04.244Z,14.20
2022-08-11T04:27:20.518Z,14.37
2022-08-11T04:32:51.368Z,14.48
2022-08-11T04:38:29.803Z,14.55
2022-08-11T04:44:11.515Z,14.61
2022-08-11T04:50:11.147Z,14.72
2022-08-11T04:55:39.345Z,14.85
2022-08-11T05:01:11.465Z,14.97
2022-08-11T05:06:36.342Z,15.01
2022-08-11T05:11:49.482Z,15.11
2022-08-11T05:17:17.168Z,15.22
2022-08-11T05:22:40.444Z,15.36
2022-08-11T05:28:18.066Z,15.51
2022-08-11T05:33:54.650Z,15.67
2022-08-11T05:39:21.859Z,15.89
2022-08-11T05:44:59.434Z,16.15
2022-08-11T05:50:32.889Z,16.42
2022-08-11T05:56:03.884Z,16.68
2022-08-11T06:01:08.380Z,16.91
2022-08-11T06:06:11.965Z,17.07
2022-08-11T06:11:18.399Z,17.23
2022-08-11T06:16:24.323Z,17.37
2022-08-11T06:21:28.760Z,17.62
2022-08-11T06:26:40.848Z,17.94
2022-08-11T06:32:02.605Z,18.29
2022-08-11T06:37:25.386Z,18.59
2022-08-11T06:42:46.826Z,18.86
2022-08-11T06:47:50.850Z,19.10
2022-08-11T06:52:55.084Z,19.31
2022-08-11T06:58:25.018Z,19.50
2022-08-11T07:03:35.189Z,19.69
2022-08-11T07:09:26.119Z,19.87
2022-08-11T07:14:50.533Z,19.98
2022-08-11T07:20:16.993Z,20.11
2022-08-11T07:25:43.466Z,20.26
2022-08-11T07:30:51.850Z,20.48
2022-08-11T07:36:00.499Z,20.63
2022-08-11T07:41:04.008Z,20.89
2022-08-11T07:46:27.801Z,21.13
2022-08-11T07:51:50.056Z,21.38
2022-08-11T07:57:09.139Z,21.62
2022-08-11T08:02:38.390Z,21.92
2022-08-11T08:08:01.025Z,22.04
2022-08-11T08:13:25.535Z,22.13
2022-08-11T08:18:29.285Z,22.25
2022-08-11T08:23:34.029Z,22.23
2022-08-11T08:28:39.835Z,22.40
2022-08-11T08:33:44.300Z,22.51
2022-08-11T08:38:54.565Z,22.62
2022-08-11T08:44:34.655Z,22.73
2022-08-11T08:49:34.579Z,22.94
2022-08-11T08:54:46.494Z,23.02
2022-08-11T08:59:51.803Z,23.17
2022-08-11T09:04:55.978Z,23.29
2022-08-11T09:10:00.690Z,23.33
2022-08-11T09:15:06.291Z,23.49
2022-08-11T09:20:19.126Z,23.58
2022-08-11T09:25:44.349Z,23.49
2022-08-11T09:30:53.901Z,23.87
2022-08-11T09:35:58.343Z,24.12
2022-08-11T09:41:05.832Z,24.61
2022-08-11T09:46:10.497Z,25.01
2022-08-11T09:51:15.055Z,24.76
2022-08-11T09:56:43.263Z,24.65
2022-08-11T10:01:49.578Z,24.46
2022-08-11T10:07:04.268Z,24.35
2022-08-11T10:12:27.102Z,24.28
2022-08-11T10:17:35.347Z,24.46
2022-08-11T10:22:59.307Z,24.72
2022-08-11T10:28:28.619Z,24.82
2022-08-11T10:33:49.190Z,24.95
2022-08-11T10:39:05.395Z,25.13
2022-08-11T10:44:10.838Z,25.25
2022-08-11T10:49:14.971Z,25.27
2022-08-11T10:54:37.168Z,25.20
2022-08-11T10:59:43.140Z,25.20
2022-08-11T11:05:01.613Z,25.18
2022-08-11T11:10:09.485Z,25.27
2022-08-11T11:15:34.547Z,25.43
2022-08-11T11:20:49.119Z,25.43
2022-08-11T11:26:07.507Z,25.42
2022-08-11T11:31:25.951Z,25.17
2022-08-11T11:36:49.741Z,24.91
2022-08-11T11:41:55.917Z,24.90
2022-08-11T11:47:00.766Z,25.18
2022-08-11T11:52:05.064Z,25.43
2022-08-11T11:57:28.072Z,25.95
2022-08-11T12:02:31.793Z,26.56
2022-08-11T12:07:57.004Z,27.25
2022-08-11T12:13:36.475Z,27.61
2022-08-11T12:18:41.584Z,27.57
2022-08-11T12:24:09.311Z,27.55
2022-08-11T12:29:13.441Z,27.48
2022-08-11T12:34:17.981Z,27.20
2022-08-11T12:40:16.625Z,27.04
2022-08-11T12:45:28.194Z,26.85
2022-08-11T12:50:50.663Z,26.92
2022-08-11T12:56:15.377Z,26.86
2022-08-11T13:01:38.132Z,26.74
2022-08-11T13:06:42.980Z,26.80
2022-08-11T13:12:05.953Z,26.90
2022-08-11T13:17:40.044Z,26.86
2022-08-11T13:22:50.434Z,26.86
2022-08-11T13:27:59.665Z,26.92
2022-08-11T13:33:07.937Z,26.88
2022-08-11T13:38:18.949Z,27.22
2022-08-11T13:43:26.232Z,27.51
2022-08-11T13:48:29.852Z,27.46
2022-08-11T13:53:33.676Z,27.48
2022-08-11T13:58:40.371Z,27.39
2022-08-11T14:04:28.663Z,27.73
2022-08-11T14:09:11.357Z,30.08
2022-08-11T14:14:25.522Z,33.99
2022-08-11T14:19:29.638Z,36.82
2022-08-11T14:24:35.097Z,40.48
2022-08-11T14:29:45.225Z,43.68
2022-08-11T14:34:53.716Z,47.08
2022-08-11T14:40:04.023Z,50.60
2022-08-11T14:45:54.123Z,53.96
2022-08-11T14:50:53.674Z,54.98
2022-08-11T14:56:15.771Z,55.64
2022-08-11T15:01:38.133Z,55.25
2022-08-11T15:06:41.647Z,55.73
2022-08-11T15:12:04.310Z,55.94
2022-08-11T15:17:09.054Z,56.84
2022-08-11T15:22:30.899Z,56.67
2022-08-11T15:27:54.893Z,56.68
2022-08-11T15:33:18.172Z,55.33
2022-08-11T15:38:23.491Z,55.59
2022-08-11T15:43:50.191Z,55.73
2022-08-11T15:49:24.121Z,54.21
2022-08-11T15:54:49.152Z,52.86
2022-08-11T16:00:11.087Z,53.19
2022-08-11T16:05:45.781Z,52.19
2022-08-11T16:10:42.794Z,50.69
2022-08-11T16:16:14.583Z,50.31
2022-08-11T16:21:34.927Z,50.45
2022-08-11T16:27:11.435Z,49.60
2022-08-11T16:32:20.752Z,47.48
2022-08-11T16:37:43.388Z,45.54
2022-08-11T16:43:11.411Z,45.59
2022-08-11T16:48:36.144Z,45.55
2022-08-11T16:54:00.090Z,44.63
2022-08-11T16:59:16.342Z,44.13
2022-08-11T17:05:00.571Z,43.61
2022-08-11T17:10:39.050Z,43.58
2022-08-11T17:16:12.898Z,42.08
2022-08-11T17:21:19.114Z,41.25
2022-08-11T17:26:52.222Z,40.18
2022-08-11T17:32:15.605Z,38.97
2022-08-11T17:37:20.375Z,37.58
2022-08-11T17:42:45.884Z,36.05
2022-08-11T17:48:08.646Z,34.19
2022-08-11T17:53:33.565Z,32.95
2022-08-11T17:58:58.992Z,31.57
2022-08-11T18:04:07.864Z,30.09
2022-08-11T18:09:34.286Z,28.59
2022-08-11T18:14:58.078Z,26.85
2022-08-11T18:20:20.538Z,25.37
2022-08-11T18:25:50.575Z,24.18
2022-08-11T18:31:13.956Z,23.32
2022-08-11T18:36:43.275Z,22.73
2022-08-11T18:42:07.069Z,22.26
2022-08-11T18:47:33.228Z,21.92
2022-08-11T18:52:56.914Z,21.61
2022-08-11T18:58:21.820Z,21.32
2022-08-11T19:03:48.662Z,21.09
2022-08-11T19:09:22.510Z,20.92
2022-08-11T19:14:46.049Z,20.78
2022-08-11T19:20:09.489Z,20.63
2022-08-11T19:26:00.198Z,20.47
2022-08-11T19:31:23.071Z,20.30
2022-08-11T19:36:47.576Z,20.13
2022-08-11T19:42:09.859Z,19.99
2022-08-11T19:47:37.617Z,19.88
2022-08-11T19:53:01.725Z,19.75
2022-08-11T19:58:40.046Z,19.62
2022-08-11T20:04:01.819Z,19.51
2022-08-11T20:09:25.021Z,19.39
2022-08-11T20:14:51.008Z,19.27
2022-08-11T20:20:14.597Z,19.15
2022-08-11T20:25:38.999Z,19.00
2022-08-11T20:31:04.332Z,18.86
2022-08-11T20:36:27.813Z,18.73
2022-08-11T20:41:59.051Z,18.65
2022-08-11T20:47:23.687Z,18.55
2022-08-11T20:52:48.759Z,18.46
2022-08-11T20:58:18.285Z,18.37
2022-08-11T21:03:52.373Z,18.28
2022-08-11T21:09:58.076Z,18.16
2022-08-11T21:15:08.311Z,18.07
2022-08-11T21:20:34.151Z,17.95
2022-08-11T21:26:02.446Z,17.85
2022-08-11T21:31:27.981Z,17.75
2022-08-11T21:36:51.462Z,17.66
2022-08-11T21:42:15.253Z,17.58
2022-08-11T21:47:43.665Z,17.50
2022-08-11T21:53:06.522Z,17.41
2022-08-11T21:58:30.520Z,17.32
2022-08-11T22:03:52.774Z,17.20
2022-08-11T22:09:14.413Z,17.11
2022-08-11T22:14:36.723Z,17.05
2022-08-11T22:20:00.708Z,16.98
2022-08-11T22:25:23.736Z,16.94
2022-08-11T22:30:46.095Z,16.87
2022-08-11T22:36:09.485Z,16.79
2022-08-11T22:41:32.858Z,16.69
2022-08-11T22:46:55.322Z,16.59
2022-08-11T22:52:18.597Z,16.49
2022-08-11T22:58:00.657Z,16.41
2022-08-11T23:03:37.574Z,16.34
2022-08-11T23:09:01.714Z,16.27
2022-08-11T23:14:25.404Z,16.21
2022-08-11T23:20:07.299Z,16.17
2022-08-11T23:25:34.694Z,16.12
2022-08-11T23:30:58.177Z,16.10
2022-08-11T23:36:35.821Z,16.06
2022-08-11T23:42:05.726Z,16.00
2022-08-11T23:47:28.391Z,15.93
2022-08-11T23:52:52.492Z,15.85
2022-08-11T23:58:14.951Z,15.77
